<?xml version="1.0" encoding="UTF-8" standalone="no" ?>
<gpx xmlns="http://www.topografix.com/GPX/1/1" xmlns:xsi="http://www.w3.org/2001/XMLSchema-instance" xsi:schemaLocation="http://www.topografix.com/GPX/1/1 http://www.topografix.com/GPX/1/1/gpx.xsd" version="1.1" creator="VisuGPX - https://www.visugpx.com">
  <metadata>
    <name>Randonnée au Puy Saint Bonnet</name>
    <desc><![CDATA[Le Puy-Saint-Bonnet est intéressant car il permet de comprendre l'ambiance du bocage vendéen et les événements qui précèdent immédiatement la bataille de Cholet.

Ce que l'on voit aujourd'hui
Un bourg tranquille conservant son identité propre malgré son rattachement à Cholet.

Ce qui s'est passé ici
De nombreux habitants du village participèrent à l'insurrection vendéenne. Plusieurs familles locales fournirent des combattants aux armées vendéennes. 
Pourquoi le lieu mérite le détour ?
Parce qu'il permet d'évoquer l'engagement des habitants ordinaires dans les événements de 1793.]]></desc>
  </metadata>
  <wpt lat="47.00133" lon="-0.89107">
    <ele>147</ele>
    <name><![CDATA[Départ]]></name>
  </wpt>
  <wpt lat="47.00107" lon="-0.89058">
    <ele>147</ele>
    <name><![CDATA[Arrivée]]></name>
  </wpt>
  <wpt lat="46.99827" lon="-0.88511">
    <ele>171.9</ele>
    <name><![CDATA[ND du chêne rond]]></name>
    <type><![CDATA[eglise]]></type>
  </wpt>
  <wpt lat="47.00144" lon="-0.89118">
    <ele>147</ele>
    <name><![CDATA[Monument religieux]]></name>
    <type><![CDATA[memorial]]></type>
  </wpt>
  <wpt lat="46.99258" lon="-0.89783">
    <ele>126.7</ele>
    <name><![CDATA[Bois de la cure]]></name>
    <type><![CDATA[patrimoine_vegetal]]></type>
  </wpt>
  <wpt lat="46.99662" lon="-0.89229">
    <ele>139.8</ele>
    <name><![CDATA[Eglise]]></name>
    <type><![CDATA[eglise]]></type>
  </wpt>
  <trk>
    <name><![CDATA[Randonnée du 22/06/2026 à 07:32]]></name>
    <extensions>
      <line xmlns="http://www.topografix.com/GPX/gpx_style/0/2">
        <color>0000FF</color>
        <width>4</width>
      </line>
    </extensions>
    <trkseg>
      <trkpt lat="47.00133" lon="-0.89107">
        <ele>147</ele>
        <time>2026-06-22T05:32:53.000Z</time>
      </trkpt>
      <trkpt lat="47.00133" lon="-0.89104">
        <ele>147</ele>
        <time>2026-06-22T05:32:53.000Z</time>
      </trkpt>
      <trkpt lat="47.00144" lon="-0.89134">
        <ele>147</ele>
        <time>2026-06-22T05:33:25.000Z</time>
      </trkpt>
      <trkpt lat="47.00149" lon="-0.89167">
        <ele>147</ele>
        <time>2026-06-22T05:34:07.000Z</time>
      </trkpt>
      <trkpt lat="47.00154" lon="-0.89199">
        <ele>148</ele>
        <time>2026-06-22T05:34:36.000Z</time>
      </trkpt>
      <trkpt lat="47.00169" lon="-0.89226">
        <ele>147</ele>
        <time>2026-06-22T05:35:01.000Z</time>
      </trkpt>
      <trkpt lat="47.00178" lon="-0.89256">
        <ele>147</ele>
        <time>2026-06-22T05:35:17.000Z</time>
      </trkpt>
      <trkpt lat="47.00186" lon="-0.89287">
        <ele>147</ele>
        <time>2026-06-22T05:35:38.000Z</time>
      </trkpt>
      <trkpt lat="47.00193" lon="-0.8932">
        <ele>147</ele>
        <time>2026-06-22T05:35:58.000Z</time>
      </trkpt>
      <trkpt lat="47.00196" lon="-0.89354">
        <ele>147</ele>
        <time>2026-06-22T05:36:18.000Z</time>
      </trkpt>
      <trkpt lat="47.00201" lon="-0.89386">
        <ele>147</ele>
        <time>2026-06-22T05:36:38.000Z</time>
      </trkpt>
      <trkpt lat="47.00204" lon="-0.8942">
        <ele>147</ele>
        <time>2026-06-22T05:36:57.000Z</time>
      </trkpt>
      <trkpt lat="47.00208" lon="-0.89452">
        <ele>147</ele>
        <time>2026-06-22T05:37:19.000Z</time>
      </trkpt>
      <trkpt lat="47.00215" lon="-0.89484">
        <ele>147</ele>
        <time>2026-06-22T05:37:37.000Z</time>
      </trkpt>
      <trkpt lat="47.00224" lon="-0.89514">
        <ele>147</ele>
        <time>2026-06-22T05:37:55.000Z</time>
      </trkpt>
      <trkpt lat="47.00228" lon="-0.89547">
        <ele>146</ele>
        <time>2026-06-22T05:38:23.000Z</time>
      </trkpt>
      <trkpt lat="47.00228" lon="-0.89583">
        <ele>145</ele>
        <time>2026-06-22T05:38:46.000Z</time>
      </trkpt>
      <trkpt lat="47.00234" lon="-0.89615">
        <ele>144</ele>
        <time>2026-06-22T05:39:09.000Z</time>
      </trkpt>
      <trkpt lat="47.00242" lon="-0.89647">
        <ele>142</ele>
        <time>2026-06-22T05:39:29.000Z</time>
      </trkpt>
      <trkpt lat="47.00249" lon="-0.89679">
        <ele>140</ele>
        <time>2026-06-22T05:39:46.000Z</time>
      </trkpt>
      <trkpt lat="47.00258" lon="-0.89711">
        <ele>139</ele>
        <time>2026-06-22T05:40:03.000Z</time>
      </trkpt>
      <trkpt lat="47.00252" lon="-0.89745">
        <ele>138</ele>
        <time>2026-06-22T05:40:22.000Z</time>
      </trkpt>
      <trkpt lat="47.00229" lon="-0.89744">
        <ele>139</ele>
        <time>2026-06-22T05:40:56.000Z</time>
      </trkpt>
      <trkpt lat="47.00207" lon="-0.89752">
        <ele>139</ele>
        <time>2026-06-22T05:41:16.000Z</time>
      </trkpt>
      <trkpt lat="47.00186" lon="-0.89762">
        <ele>139</ele>
        <time>2026-06-22T05:41:35.000Z</time>
      </trkpt>
      <trkpt lat="47.00162" lon="-0.89763">
        <ele>139</ele>
        <time>2026-06-22T05:41:58.000Z</time>
      </trkpt>
      <trkpt lat="47.00138" lon="-0.89761">
        <ele>139</ele>
        <time>2026-06-22T05:42:14.000Z</time>
      </trkpt>
      <trkpt lat="47.00122" lon="-0.89783">
        <ele>138</ele>
        <time>2026-06-22T05:42:33.000Z</time>
      </trkpt>
      <trkpt lat="47.00105" lon="-0.89806">
        <ele>138</ele>
        <time>2026-06-22T05:42:52.000Z</time>
      </trkpt>
      <trkpt lat="47.00088" lon="-0.89828">
        <ele>136</ele>
        <time>2026-06-22T05:43:10.000Z</time>
      </trkpt>
      <trkpt lat="47.00067" lon="-0.89843">
        <ele>135</ele>
        <time>2026-06-22T05:43:29.000Z</time>
      </trkpt>
      <trkpt lat="47.00045" lon="-0.89857">
        <ele>134</ele>
        <time>2026-06-22T05:43:55.000Z</time>
      </trkpt>
      <trkpt lat="47.00027" lon="-0.8988">
        <ele>132</ele>
        <time>2026-06-22T05:44:22.000Z</time>
      </trkpt>
      <trkpt lat="47.00034" lon="-0.89912">
        <ele>129</ele>
        <time>2026-06-22T05:44:45.000Z</time>
      </trkpt>
      <trkpt lat="47.00042" lon="-0.89943">
        <ele>127</ele>
        <time>2026-06-22T05:45:06.000Z</time>
      </trkpt>
      <trkpt lat="47.00035" lon="-0.89974">
        <ele>125</ele>
        <time>2026-06-22T05:45:33.000Z</time>
      </trkpt>
      <trkpt lat="47.00038" lon="-0.90008">
        <ele>123</ele>
        <time>2026-06-22T05:45:52.000Z</time>
      </trkpt>
      <trkpt lat="47.00035" lon="-0.90041">
        <ele>121</ele>
        <time>2026-06-22T05:46:09.000Z</time>
      </trkpt>
      <trkpt lat="47.00041" lon="-0.90073">
        <ele>121</ele>
        <time>2026-06-22T05:46:28.000Z</time>
      </trkpt>
      <trkpt lat="47.00054" lon="-0.90102">
        <ele>121</ele>
        <time>2026-06-22T05:46:48.000Z</time>
      </trkpt>
      <trkpt lat="47.00069" lon="-0.90126">
        <ele>121</ele>
        <time>2026-06-22T05:47:05.000Z</time>
      </trkpt>
      <trkpt lat="47.00086" lon="-0.90149">
        <ele>122</ele>
        <time>2026-06-22T05:47:27.000Z</time>
      </trkpt>
      <trkpt lat="47.00098" lon="-0.90177">
        <ele>121</ele>
        <time>2026-06-22T05:47:50.000Z</time>
      </trkpt>
      <trkpt lat="47.00087" lon="-0.90207">
        <ele>121</ele>
        <time>2026-06-22T05:48:46.000Z</time>
      </trkpt>
      <trkpt lat="47.00069" lon="-0.90227">
        <ele>119</ele>
        <time>2026-06-22T05:49:05.000Z</time>
      </trkpt>
      <trkpt lat="47.00048" lon="-0.90243">
        <ele>117</ele>
        <time>2026-06-22T05:49:24.000Z</time>
      </trkpt>
      <trkpt lat="47.00026" lon="-0.90251">
        <ele>116</ele>
        <time>2026-06-22T05:49:48.000Z</time>
      </trkpt>
      <trkpt lat="47.00003" lon="-0.90255">
        <ele>116</ele>
        <time>2026-06-22T05:50:05.000Z</time>
      </trkpt>
      <trkpt lat="46.9998" lon="-0.90255">
        <ele>116</ele>
        <time>2026-06-22T05:50:29.000Z</time>
      </trkpt>
      <trkpt lat="46.99957" lon="-0.90259">
        <ele>116</ele>
        <time>2026-06-22T05:50:46.000Z</time>
      </trkpt>
      <trkpt lat="46.99937" lon="-0.90276">
        <ele>117</ele>
        <time>2026-06-22T05:51:07.000Z</time>
      </trkpt>
      <trkpt lat="46.99918" lon="-0.90293">
        <ele>117</ele>
        <time>2026-06-22T05:51:27.000Z</time>
      </trkpt>
      <trkpt lat="46.99898" lon="-0.90277">
        <ele>118</ele>
        <time>2026-06-22T05:51:48.000Z</time>
      </trkpt>
      <trkpt lat="46.99877" lon="-0.90261">
        <ele>118</ele>
        <time>2026-06-22T05:52:09.000Z</time>
      </trkpt>
      <trkpt lat="46.9986" lon="-0.90238">
        <ele>120</ele>
        <time>2026-06-22T05:52:33.000Z</time>
      </trkpt>
      <trkpt lat="46.99839" lon="-0.90225">
        <ele>120</ele>
        <time>2026-06-22T05:52:52.000Z</time>
      </trkpt>
      <trkpt lat="46.99819" lon="-0.90242">
        <ele>121</ele>
        <time>2026-06-22T05:53:12.000Z</time>
      </trkpt>
      <trkpt lat="46.99801" lon="-0.90262">
        <ele>120</ele>
        <time>2026-06-22T05:53:31.000Z</time>
      </trkpt>
      <trkpt lat="46.99784" lon="-0.90286">
        <ele>120</ele>
        <time>2026-06-22T05:53:52.000Z</time>
      </trkpt>
      <trkpt lat="46.99764" lon="-0.90304">
        <ele>120</ele>
        <time>2026-06-22T05:54:23.000Z</time>
      </trkpt>
      <trkpt lat="46.99745" lon="-0.90287">
        <ele>121</ele>
        <time>2026-06-22T05:54:54.000Z</time>
      </trkpt>
      <trkpt lat="46.99727" lon="-0.90266">
        <ele>121</ele>
        <time>2026-06-22T05:55:37.000Z</time>
      </trkpt>
      <trkpt lat="46.99705" lon="-0.90255">
        <ele>122</ele>
        <time>2026-06-22T05:56:02.000Z</time>
      </trkpt>
      <trkpt lat="46.99684" lon="-0.90242">
        <ele>122</ele>
        <time>2026-06-22T05:56:20.000Z</time>
      </trkpt>
      <trkpt lat="46.9966" lon="-0.90243">
        <ele>122</ele>
        <time>2026-06-22T05:56:44.000Z</time>
      </trkpt>
      <trkpt lat="46.99639" lon="-0.90228">
        <ele>122</ele>
        <time>2026-06-22T05:57:05.000Z</time>
      </trkpt>
      <trkpt lat="46.99617" lon="-0.90215">
        <ele>123</ele>
        <time>2026-06-22T05:57:28.000Z</time>
      </trkpt>
      <trkpt lat="46.99595" lon="-0.90208">
        <ele>123</ele>
        <time>2026-06-22T05:57:47.000Z</time>
      </trkpt>
      <trkpt lat="46.99572" lon="-0.902">
        <ele>123</ele>
        <time>2026-06-22T05:58:09.000Z</time>
      </trkpt>
      <trkpt lat="46.99553" lon="-0.90181">
        <ele>123</ele>
        <time>2026-06-22T05:58:40.000Z</time>
      </trkpt>
      <trkpt lat="46.99544" lon="-0.90151">
        <ele>123</ele>
        <time>2026-06-22T05:59:02.000Z</time>
      </trkpt>
      <trkpt lat="46.99541" lon="-0.90118">
        <ele>124</ele>
        <time>2026-06-22T05:59:23.000Z</time>
      </trkpt>
      <trkpt lat="46.99533" lon="-0.90086">
        <ele>123</ele>
        <time>2026-06-22T05:59:40.000Z</time>
      </trkpt>
      <trkpt lat="46.99529" lon="-0.90053">
        <ele>124</ele>
        <time>2026-06-22T06:00:02.000Z</time>
      </trkpt>
      <trkpt lat="46.99507" lon="-0.90046">
        <ele>124</ele>
        <time>2026-06-22T06:00:39.000Z</time>
      </trkpt>
      <trkpt lat="46.99486" lon="-0.90061">
        <ele>124</ele>
        <time>2026-06-22T06:01:02.000Z</time>
      </trkpt>
      <trkpt lat="46.99467" lon="-0.90078">
        <ele>123</ele>
        <time>2026-06-22T06:01:22.000Z</time>
      </trkpt>
      <trkpt lat="46.99445" lon="-0.9009">
        <ele>123</ele>
        <time>2026-06-22T06:01:51.000Z</time>
      </trkpt>
      <trkpt lat="46.99422" lon="-0.90093">
        <ele>122</ele>
        <time>2026-06-22T06:02:16.000Z</time>
      </trkpt>
      <trkpt lat="46.994" lon="-0.90086">
        <ele>122</ele>
        <time>2026-06-22T06:02:34.000Z</time>
      </trkpt>
      <trkpt lat="46.99381" lon="-0.90068">
        <ele>123</ele>
        <time>2026-06-22T06:02:56.000Z</time>
      </trkpt>
      <trkpt lat="46.99365" lon="-0.90043">
        <ele>124</ele>
        <time>2026-06-22T06:03:23.000Z</time>
      </trkpt>
      <trkpt lat="46.99342" lon="-0.90034">
        <ele>124</ele>
        <time>2026-06-22T06:04:26.000Z</time>
      </trkpt>
      <trkpt lat="46.99319" lon="-0.90034">
        <ele>124</ele>
        <time>2026-06-22T06:04:44.000Z</time>
      </trkpt>
      <trkpt lat="46.99296" lon="-0.90032">
        <ele>124</ele>
        <time>2026-06-22T06:05:00.000Z</time>
      </trkpt>
      <trkpt lat="46.99273" lon="-0.90038">
        <ele>124</ele>
        <time>2026-06-22T06:05:25.000Z</time>
      </trkpt>
      <trkpt lat="46.99251" lon="-0.90051">
        <ele>124</ele>
        <time>2026-06-22T06:05:45.000Z</time>
      </trkpt>
      <trkpt lat="46.99228" lon="-0.90056">
        <ele>124</ele>
        <time>2026-06-22T06:06:06.000Z</time>
      </trkpt>
      <trkpt lat="46.99205" lon="-0.90054">
        <ele>125</ele>
        <time>2026-06-22T06:06:27.000Z</time>
      </trkpt>
      <trkpt lat="46.99182" lon="-0.90065">
        <ele>126</ele>
        <time>2026-06-22T06:06:49.000Z</time>
      </trkpt>
      <trkpt lat="46.99167" lon="-0.90039">
        <ele>126</ele>
        <time>2026-06-22T06:07:22.000Z</time>
      </trkpt>
      <trkpt lat="46.99184" lon="-0.90016">
        <ele>127</ele>
        <time>2026-06-22T06:07:46.000Z</time>
      </trkpt>
      <trkpt lat="46.992" lon="-0.89993">
        <ele>127</ele>
        <time>2026-06-22T06:08:14.000Z</time>
      </trkpt>
      <trkpt lat="46.9922" lon="-0.89975">
        <ele>126</ele>
        <time>2026-06-22T06:08:31.000Z</time>
      </trkpt>
      <trkpt lat="46.99201" lon="-0.89993">
        <ele>127</ele>
        <time>2026-06-22T06:09:53.000Z</time>
      </trkpt>
      <trkpt lat="46.99181" lon="-0.90012">
        <ele>127</ele>
        <time>2026-06-22T06:10:18.000Z</time>
      </trkpt>
      <trkpt lat="46.99202" lon="-0.89996">
        <ele>126</ele>
        <time>2026-06-22T06:11:23.000Z</time>
      </trkpt>
      <trkpt lat="46.99222" lon="-0.8998">
        <ele>126</ele>
        <time>2026-06-22T06:11:46.000Z</time>
      </trkpt>
      <trkpt lat="46.99244" lon="-0.89974">
        <ele>126</ele>
        <time>2026-06-22T06:12:03.000Z</time>
      </trkpt>
      <trkpt lat="46.99267" lon="-0.89962">
        <ele>124</ele>
        <time>2026-06-22T06:12:29.000Z</time>
      </trkpt>
      <trkpt lat="46.99278" lon="-0.89933">
        <ele>125</ele>
        <time>2026-06-22T06:12:49.000Z</time>
      </trkpt>
      <trkpt lat="46.99286" lon="-0.89902">
        <ele>126</ele>
        <time>2026-06-22T06:13:09.000Z</time>
      </trkpt>
      <trkpt lat="46.9927" lon="-0.89878">
        <ele>127</ele>
        <time>2026-06-22T06:13:51.000Z</time>
      </trkpt>
      <trkpt lat="46.99255" lon="-0.89851">
        <ele>128</ele>
        <time>2026-06-22T06:14:16.000Z</time>
      </trkpt>
      <trkpt lat="46.9924" lon="-0.89823">
        <ele>128</ele>
        <time>2026-06-22T06:14:37.000Z</time>
      </trkpt>
      <trkpt lat="46.9923" lon="-0.89793">
        <ele>128</ele>
        <time>2026-06-22T06:14:58.000Z</time>
      </trkpt>
      <trkpt lat="46.99223" lon="-0.89759">
        <ele>128</ele>
        <time>2026-06-22T06:15:26.000Z</time>
      </trkpt>
      <trkpt lat="46.99215" lon="-0.89728">
        <ele>128</ele>
        <time>2026-06-22T06:15:44.000Z</time>
      </trkpt>
      <trkpt lat="46.99208" lon="-0.89695">
        <ele>129</ele>
        <time>2026-06-22T06:16:08.000Z</time>
      </trkpt>
      <trkpt lat="46.99225" lon="-0.89671">
        <ele>129</ele>
        <time>2026-06-22T06:16:29.000Z</time>
      </trkpt>
      <trkpt lat="46.99219" lon="-0.89639">
        <ele>130</ele>
        <time>2026-06-22T06:16:57.000Z</time>
      </trkpt>
      <trkpt lat="46.99203" lon="-0.89614">
        <ele>131</ele>
        <time>2026-06-22T06:17:25.000Z</time>
      </trkpt>
      <trkpt lat="46.9919" lon="-0.89586">
        <ele>132</ele>
        <time>2026-06-22T06:17:42.000Z</time>
      </trkpt>
      <trkpt lat="46.99173" lon="-0.89561">
        <ele>133</ele>
        <time>2026-06-22T06:17:57.000Z</time>
      </trkpt>
      <trkpt lat="46.99159" lon="-0.89535">
        <ele>134</ele>
        <time>2026-06-22T06:18:16.000Z</time>
      </trkpt>
      <trkpt lat="46.99143" lon="-0.89511">
        <ele>134</ele>
        <time>2026-06-22T06:18:36.000Z</time>
      </trkpt>
      <trkpt lat="46.99129" lon="-0.89484">
        <ele>134</ele>
        <time>2026-06-22T06:18:56.000Z</time>
      </trkpt>
      <trkpt lat="46.99116" lon="-0.89456">
        <ele>135</ele>
        <time>2026-06-22T06:19:58.000Z</time>
      </trkpt>
      <trkpt lat="46.99126" lon="-0.89426">
        <ele>135</ele>
        <time>2026-06-22T06:20:37.000Z</time>
      </trkpt>
      <trkpt lat="46.99143" lon="-0.89401">
        <ele>134</ele>
        <time>2026-06-22T06:21:02.000Z</time>
      </trkpt>
      <trkpt lat="46.9916" lon="-0.89379">
        <ele>135</ele>
        <time>2026-06-22T06:21:20.000Z</time>
      </trkpt>
      <trkpt lat="46.99176" lon="-0.89355">
        <ele>135</ele>
        <time>2026-06-22T06:21:40.000Z</time>
      </trkpt>
      <trkpt lat="46.99194" lon="-0.89333">
        <ele>135</ele>
        <time>2026-06-22T06:21:59.000Z</time>
      </trkpt>
      <trkpt lat="46.99213" lon="-0.89313">
        <ele>136</ele>
        <time>2026-06-22T06:22:17.000Z</time>
      </trkpt>
      <trkpt lat="46.99227" lon="-0.89288">
        <ele>136</ele>
        <time>2026-06-22T06:22:38.000Z</time>
      </trkpt>
      <trkpt lat="46.99244" lon="-0.89264">
        <ele>136</ele>
        <time>2026-06-22T06:22:58.000Z</time>
      </trkpt>
      <trkpt lat="46.99261" lon="-0.89242">
        <ele>136</ele>
        <time>2026-06-22T06:23:19.000Z</time>
      </trkpt>
      <trkpt lat="46.99282" lon="-0.89256">
        <ele>135</ele>
        <time>2026-06-22T06:23:43.000Z</time>
      </trkpt>
      <trkpt lat="46.99301" lon="-0.89273">
        <ele>134</ele>
        <time>2026-06-22T06:24:05.000Z</time>
      </trkpt>
      <trkpt lat="46.99323" lon="-0.89285">
        <ele>132</ele>
        <time>2026-06-22T06:24:23.000Z</time>
      </trkpt>
      <trkpt lat="46.99346" lon="-0.89279">
        <ele>132</ele>
        <time>2026-06-22T06:24:43.000Z</time>
      </trkpt>
      <trkpt lat="46.99368" lon="-0.89285">
        <ele>131</ele>
        <time>2026-06-22T06:25:03.000Z</time>
      </trkpt>
      <trkpt lat="46.9939" lon="-0.89302">
        <ele>131</ele>
        <time>2026-06-22T06:25:23.000Z</time>
      </trkpt>
      <trkpt lat="46.99412" lon="-0.89312">
        <ele>130</ele>
        <time>2026-06-22T06:25:40.000Z</time>
      </trkpt>
      <trkpt lat="46.99434" lon="-0.89319">
        <ele>130</ele>
        <time>2026-06-22T06:26:02.000Z</time>
      </trkpt>
      <trkpt lat="46.99456" lon="-0.89329">
        <ele>130</ele>
        <time>2026-06-22T06:26:24.000Z</time>
      </trkpt>
      <trkpt lat="46.99479" lon="-0.89323">
        <ele>130</ele>
        <time>2026-06-22T06:26:46.000Z</time>
      </trkpt>
      <trkpt lat="46.99503" lon="-0.89322">
        <ele>130</ele>
        <time>2026-06-22T06:27:09.000Z</time>
      </trkpt>
      <trkpt lat="46.99525" lon="-0.89323">
        <ele>131</ele>
        <time>2026-06-22T06:27:27.000Z</time>
      </trkpt>
      <trkpt lat="46.99548" lon="-0.89319">
        <ele>132</ele>
        <time>2026-06-22T06:27:51.000Z</time>
      </trkpt>
      <trkpt lat="46.99568" lon="-0.89302">
        <ele>132</ele>
        <time>2026-06-22T06:28:15.000Z</time>
      </trkpt>
      <trkpt lat="46.99567" lon="-0.89269">
        <ele>134</ele>
        <time>2026-06-22T06:28:50.000Z</time>
      </trkpt>
      <trkpt lat="46.99575" lon="-0.89237">
        <ele>134</ele>
        <time>2026-06-22T06:29:19.000Z</time>
      </trkpt>
      <trkpt lat="46.99598" lon="-0.89241">
        <ele>136</ele>
        <time>2026-06-22T06:30:00.000Z</time>
      </trkpt>
      <trkpt lat="46.99613" lon="-0.89215">
        <ele>138</ele>
        <time>2026-06-22T06:30:40.000Z</time>
      </trkpt>
      <trkpt lat="46.9963" lon="-0.89191">
        <ele>137</ele>
        <time>2026-06-22T06:32:12.000Z</time>
      </trkpt>
      <trkpt lat="46.99629" lon="-0.89158">
        <ele>138</ele>
        <time>2026-06-22T06:32:38.000Z</time>
      </trkpt>
      <trkpt lat="46.99638" lon="-0.89126">
        <ele>139</ele>
        <time>2026-06-22T06:33:02.000Z</time>
      </trkpt>
      <trkpt lat="46.99651" lon="-0.89099">
        <ele>139</ele>
        <time>2026-06-22T06:33:27.000Z</time>
      </trkpt>
      <trkpt lat="46.99675" lon="-0.89098">
        <ele>141</ele>
        <time>2026-06-22T06:33:59.000Z</time>
      </trkpt>
      <trkpt lat="46.9969" lon="-0.89073">
        <ele>143</ele>
        <time>2026-06-22T06:35:02.000Z</time>
      </trkpt>
      <trkpt lat="46.99689" lon="-0.89039">
        <ele>143</ele>
        <time>2026-06-22T06:35:25.000Z</time>
      </trkpt>
      <trkpt lat="46.9969" lon="-0.89005">
        <ele>144</ele>
        <time>2026-06-22T06:35:46.000Z</time>
      </trkpt>
      <trkpt lat="46.99698" lon="-0.88974">
        <ele>145</ele>
        <time>2026-06-22T06:36:09.000Z</time>
      </trkpt>
      <trkpt lat="46.99705" lon="-0.88942">
        <ele>147</ele>
        <time>2026-06-22T06:37:13.000Z</time>
      </trkpt>
      <trkpt lat="46.99716" lon="-0.88913">
        <ele>148</ele>
        <time>2026-06-22T06:37:40.000Z</time>
      </trkpt>
      <trkpt lat="46.99724" lon="-0.8888">
        <ele>148</ele>
        <time>2026-06-22T06:38:02.000Z</time>
      </trkpt>
      <trkpt lat="46.99731" lon="-0.88848">
        <ele>150</ele>
        <time>2026-06-22T06:38:22.000Z</time>
      </trkpt>
      <trkpt lat="46.99733" lon="-0.88815">
        <ele>152</ele>
        <time>2026-06-22T06:38:44.000Z</time>
      </trkpt>
      <trkpt lat="46.99735" lon="-0.88782">
        <ele>155</ele>
        <time>2026-06-22T06:39:28.000Z</time>
      </trkpt>
      <trkpt lat="46.99736" lon="-0.88747">
        <ele>157</ele>
        <time>2026-06-22T06:39:53.000Z</time>
      </trkpt>
      <trkpt lat="46.99741" lon="-0.88714">
        <ele>161</ele>
        <time>2026-06-22T06:40:24.000Z</time>
      </trkpt>
      <trkpt lat="46.99748" lon="-0.88681">
        <ele>164</ele>
        <time>2026-06-22T06:40:47.000Z</time>
      </trkpt>
      <trkpt lat="46.99762" lon="-0.88654">
        <ele>166</ele>
        <time>2026-06-22T06:41:09.000Z</time>
      </trkpt>
      <trkpt lat="46.99776" lon="-0.88628">
        <ele>168</ele>
        <time>2026-06-22T06:41:30.000Z</time>
      </trkpt>
      <trkpt lat="46.99792" lon="-0.88603">
        <ele>171</ele>
        <time>2026-06-22T06:41:53.000Z</time>
      </trkpt>
      <trkpt lat="46.99806" lon="-0.88577">
        <ele>171</ele>
        <time>2026-06-22T06:42:16.000Z</time>
      </trkpt>
      <trkpt lat="46.99818" lon="-0.88547">
        <ele>172</ele>
        <time>2026-06-22T06:42:47.000Z</time>
      </trkpt>
      <trkpt lat="46.99824" lon="-0.88515">
        <ele>172</ele>
        <time>2026-06-22T06:43:55.000Z</time>
      </trkpt>
      <trkpt lat="46.9981" lon="-0.88489">
        <ele>172</ele>
        <time>2026-06-22T06:44:15.000Z</time>
      </trkpt>
      <trkpt lat="46.99795" lon="-0.88463">
        <ele>172</ele>
        <time>2026-06-22T06:44:35.000Z</time>
      </trkpt>
      <trkpt lat="46.99779" lon="-0.88438">
        <ele>171</ele>
        <time>2026-06-22T06:45:15.000Z</time>
      </trkpt>
      <trkpt lat="46.99788" lon="-0.88407">
        <ele>171</ele>
        <time>2026-06-22T06:45:43.000Z</time>
      </trkpt>
      <trkpt lat="46.99797" lon="-0.88376">
        <ele>170</ele>
        <time>2026-06-22T06:46:04.000Z</time>
      </trkpt>
      <trkpt lat="46.99813" lon="-0.88352">
        <ele>170</ele>
        <time>2026-06-22T06:46:26.000Z</time>
      </trkpt>
      <trkpt lat="46.99835" lon="-0.88345">
        <ele>169</ele>
        <time>2026-06-22T06:46:52.000Z</time>
      </trkpt>
      <trkpt lat="46.99857" lon="-0.88354">
        <ele>169</ele>
        <time>2026-06-22T06:47:16.000Z</time>
      </trkpt>
      <trkpt lat="46.99879" lon="-0.88363">
        <ele>167</ele>
        <time>2026-06-22T06:47:51.000Z</time>
      </trkpt>
      <trkpt lat="46.99899" lon="-0.88379">
        <ele>165</ele>
        <time>2026-06-22T06:48:15.000Z</time>
      </trkpt>
      <trkpt lat="46.99917" lon="-0.88399">
        <ele>165</ele>
        <time>2026-06-22T06:48:34.000Z</time>
      </trkpt>
      <trkpt lat="46.99934" lon="-0.88421">
        <ele>163</ele>
        <time>2026-06-22T06:48:55.000Z</time>
      </trkpt>
      <trkpt lat="46.99935" lon="-0.88455">
        <ele>164</ele>
        <time>2026-06-22T06:49:18.000Z</time>
      </trkpt>
      <trkpt lat="46.99933" lon="-0.88489">
        <ele>164</ele>
        <time>2026-06-22T06:49:39.000Z</time>
      </trkpt>
      <trkpt lat="46.99931" lon="-0.88522">
        <ele>164</ele>
        <time>2026-06-22T06:49:58.000Z</time>
      </trkpt>
      <trkpt lat="46.99927" lon="-0.88556">
        <ele>164</ele>
        <time>2026-06-22T06:50:19.000Z</time>
      </trkpt>
      <trkpt lat="46.99923" lon="-0.88589">
        <ele>164</ele>
        <time>2026-06-22T06:50:45.000Z</time>
      </trkpt>
      <trkpt lat="46.99919" lon="-0.88621">
        <ele>164</ele>
        <time>2026-06-22T06:51:05.000Z</time>
      </trkpt>
      <trkpt lat="46.99913" lon="-0.88654">
        <ele>163</ele>
        <time>2026-06-22T06:51:27.000Z</time>
      </trkpt>
      <trkpt lat="46.99913" lon="-0.88689">
        <ele>162</ele>
        <time>2026-06-22T06:51:55.000Z</time>
      </trkpt>
      <trkpt lat="46.99911" lon="-0.88723">
        <ele>160</ele>
        <time>2026-06-22T06:52:21.000Z</time>
      </trkpt>
      <trkpt lat="46.99917" lon="-0.88756">
        <ele>158</ele>
        <time>2026-06-22T06:52:48.000Z</time>
      </trkpt>
      <trkpt lat="46.99935" lon="-0.88777">
        <ele>157</ele>
        <time>2026-06-22T06:53:23.000Z</time>
      </trkpt>
      <trkpt lat="46.99955" lon="-0.88761">
        <ele>156</ele>
        <time>2026-06-22T06:53:47.000Z</time>
      </trkpt>
      <trkpt lat="46.99976" lon="-0.88745">
        <ele>154</ele>
        <time>2026-06-22T06:54:04.000Z</time>
      </trkpt>
      <trkpt lat="46.99995" lon="-0.88764">
        <ele>153</ele>
        <time>2026-06-22T06:54:28.000Z</time>
      </trkpt>
      <trkpt lat="47.00006" lon="-0.88794">
        <ele>152</ele>
        <time>2026-06-22T06:54:50.000Z</time>
      </trkpt>
      <trkpt lat="47.00017" lon="-0.88823">
        <ele>153</ele>
        <time>2026-06-22T06:55:10.000Z</time>
      </trkpt>
      <trkpt lat="47.00027" lon="-0.88854">
        <ele>153</ele>
        <time>2026-06-22T06:55:27.000Z</time>
      </trkpt>
      <trkpt lat="47.00037" lon="-0.88884">
        <ele>151</ele>
        <time>2026-06-22T06:55:49.000Z</time>
      </trkpt>
      <trkpt lat="47.0005" lon="-0.88913">
        <ele>151</ele>
        <time>2026-06-22T06:56:14.000Z</time>
      </trkpt>
      <trkpt lat="47.00063" lon="-0.8894">
        <ele>150</ele>
        <time>2026-06-22T06:56:34.000Z</time>
      </trkpt>
      <trkpt lat="47.00075" lon="-0.88969">
        <ele>148</ele>
        <time>2026-06-22T06:56:56.000Z</time>
      </trkpt>
      <trkpt lat="47.00087" lon="-0.88998">
        <ele>148</ele>
        <time>2026-06-22T06:57:15.000Z</time>
      </trkpt>
      <trkpt lat="47.00098" lon="-0.89028">
        <ele>148</ele>
        <time>2026-06-22T06:57:40.000Z</time>
      </trkpt>
      <trkpt lat="47.00107" lon="-0.89058">
        <ele>147</ele>
        <time>2026-06-22T06:58:18.000Z</time>
      </trkpt>
    </trkseg>
  </trk>
</gpx>